DAL715 KPHX-KLAX
Flight info
| Callsign | DAL715 |
|---|---|
| Flight time | 0h 59m |
| Altitude | 36000 |
| Route | KEENS3 WLVRN ESTWD HLYWD1 |
| Aircraft | A321/M-SDE3FGHIRWY/LB1 |
Departure
| Time | 2026-04-26 03:12 |
|---|---|
| Airport | Phoenix Sky Harbor International Airport (KPHX) |
Arrival
| Time | 2026-04-26 04:12 |
|---|---|
| Airport | Los Angeles International Airport (KLAX) |
| Time | Latitude | Longitude | Altitude | Speed | Heading |
|---|---|---|---|---|---|
| 2026-04-26 02:54 | 33.43389 | -112.00978 | 1135 ft | 0 kts | 2° |
| 2026-04-26 03:02 | 33.43387 | -112.00979 | 1131 ft | 1 kts | 2° |
| 2026-04-26 03:02 | 33.43369 | -112.00979 | 1135 ft | 3 kts | 360° |
| 2026-04-26 03:03 | 33.43349 | -112.00979 | 1133 ft | 3 kts | 358° |
| 2026-04-26 03:03 | 33.43329 | -112.00978 | 1133 ft | 3 kts | 360° |
| 2026-04-26 03:03 | 33.43308 | -112.00979 | 1134 ft | 3 kts | 11° |
| 2026-04-26 03:03 | 33.43292 | -112.00985 | 1132 ft | 3 kts | 54° |
| 2026-04-26 03:04 | 33.43288 | -112.00992 | 1132 ft | 0 kts | 92° |
| 2026-04-26 03:06 | 33.43288 | -112.00962 | 1132 ft | 9 kts | 91° |
| 2026-04-26 03:06 | 33.43289 | -112.00844 | 1132 ft | 20 kts | 90° |
| 2026-04-26 03:06 | 33.43223 | -112.00733 | 1133 ft | 12 kts | 117° |
| 2026-04-26 03:07 | 33.43215 | -112.00599 | 1135 ft | 21 kts | 91° |
| 2026-04-26 03:07 | 33.43215 | -112.00372 | 1136 ft | 33 kts | 90° |
| 2026-04-26 03:07 | 33.43216 | -112.00062 | 1133 ft | 39 kts | 90° |
| 2026-04-26 03:07 | 33.43214 | -111.99742 | 1134 ft | 29 kts | 90° |
| 2026-04-26 03:08 | 33.43215 | -111.99582 | 1136 ft | 9 kts | 90° |
| 2026-04-26 03:08 | 33.43215 | -111.99510 | 1135 ft | 8 kts | 90° |
| 2026-04-26 03:08 | 33.43215 | -111.99447 | 1136 ft | 7 kts | 89° |
| 2026-04-26 03:08 | 33.43213 | -111.99394 | 1132 ft | 6 kts | 98° |
| 2026-04-26 03:09 | 33.43200 | -111.99361 | 1137 ft | 0 kts | 128° |
| 2026-04-26 03:09 | 33.43186 | -111.99351 | 1133 ft | 9 kts | 156° |
| 2026-04-26 03:09 | 33.43108 | -111.99370 | 1137 ft | 16 kts | 244° |
| 2026-04-26 03:10 | 33.43102 | -111.99437 | 1135 ft | 0 kts | 269° |
| 2026-04-26 03:11 | 33.43102 | -111.99441 | 1135 ft | 3 kts | 269° |
| 2026-04-26 03:11 | 33.43103 | -111.99702 | 1135 ft | 74 kts | 270° |
| 2026-04-26 03:11 | 33.43105 | -112.00647 | 1134 ft | 149 kts | 270° |
| 2026-04-26 03:12 | 33.43099 | -112.02113 | 1288 ft | 194 kts | 270° |
| 2026-04-26 03:12 | 33.43068 | -112.03796 | 1920 ft | 213 kts | 267° |
| 2026-04-26 03:12 | 33.42978 | -112.05668 | 2246 ft | 237 kts | 266° |
| 2026-04-26 03:12 | 33.42817 | -112.07710 | 2707 ft | 254 kts | 257° |
| 2026-04-26 03:13 | 33.42271 | -112.09751 | 3435 ft | 260 kts | 250° |
| 2026-04-26 03:13 | 33.41626 | -112.11787 | 4276 ft | 263 kts | 248° |
| 2026-04-26 03:13 | 33.40957 | -112.13826 | 5195 ft | 263 kts | 246° |
| 2026-04-26 03:13 | 33.40293 | -112.15853 | 6164 ft | 261 kts | 246° |
| 2026-04-26 03:14 | 33.39638 | -112.17879 | 7027 ft | 262 kts | 246° |
| 2026-04-26 03:14 | 33.39187 | -112.20013 | 7812 ft | 270 kts | 264° |
| 2026-04-26 03:14 | 33.39395 | -112.22272 | 8594 ft | 276 kts | 276° |
| 2026-04-26 03:14 | 33.39736 | -112.24506 | 9386 ft | 278 kts | 276° |
| 2026-04-26 03:15 | 33.40088 | -112.26821 | 10126 ft | 280 kts | 276° |
| 2026-04-26 03:15 | 33.40440 | -112.29170 | 10373 ft | 302 kts | 276° |
| 2026-04-26 03:15 | 33.40820 | -112.31725 | 10621 ft | 320 kts | 276° |
| 2026-04-26 03:15 | 33.41216 | -112.34380 | 11212 ft | 326 kts | 276° |
| 2026-04-26 03:16 | 33.41619 | -112.37064 | 11936 ft | 329 kts | 276° |
| 2026-04-26 03:16 | 33.42021 | -112.39762 | 12667 ft | 331 kts | 276° |
| 2026-04-26 03:16 | 33.42426 | -112.42478 | 13412 ft | 333 kts | 276° |
| 2026-04-26 03:16 | 33.42833 | -112.45212 | 14075 ft | 335 kts | 275° |
| 2026-04-26 03:17 | 33.43238 | -112.47956 | 14747 ft | 336 kts | 275° |
| 2026-04-26 03:17 | 33.43643 | -112.50713 | 15394 ft | 337 kts | 275° |
| 2026-04-26 03:17 | 33.44050 | -112.53491 | 16038 ft | 339 kts | 275° |
| 2026-04-26 03:17 | 33.44458 | -112.56285 | 16688 ft | 342 kts | 275° |
| 2026-04-26 03:18 | 33.44870 | -112.59098 | 17327 ft | 344 kts | 274° |
| 2026-04-26 03:18 | 33.45052 | -112.61934 | 17942 ft | 342 kts | 267° |
| 2026-04-26 03:18 | 33.45087 | -112.64795 | 18503 ft | 344 kts | 267° |
| 2026-04-26 03:18 | 33.45121 | -112.67664 | 19049 ft | 346 kts | 266° |
| 2026-04-26 03:19 | 33.45156 | -112.70547 | 19596 ft | 347 kts | 266° |
| 2026-04-26 03:19 | 33.45190 | -112.73439 | 20126 ft | 348 kts | 266° |
| 2026-04-26 03:19 | 33.45226 | -112.76342 | 20676 ft | 349 kts | 266° |
| 2026-04-26 03:19 | 33.45384 | -112.79258 | 21204 ft | 355 kts | 274° |
| 2026-04-26 03:20 | 33.46025 | -112.82138 | 21733 ft | 363 kts | 284° |
| 2026-04-26 03:20 | 33.47010 | -112.84948 | 22242 ft | 367 kts | 286° |
| 2026-04-26 03:20 | 33.48005 | -112.87765 | 22762 ft | 368 kts | 285° |
| 2026-04-26 03:20 | 33.49002 | -112.90594 | 23247 ft | 370 kts | 285° |
| 2026-04-26 03:21 | 33.50000 | -112.93443 | 23652 ft | 372 kts | 285° |
| 2026-04-26 03:21 | 33.51001 | -112.96308 | 24043 ft | 373 kts | 285° |
| 2026-04-26 03:21 | 33.52003 | -112.99184 | 24436 ft | 375 kts | 285° |
| 2026-04-26 03:21 | 33.53011 | -113.02074 | 24830 ft | 376 kts | 285° |
| 2026-04-26 03:22 | 33.54020 | -113.04975 | 25229 ft | 378 kts | 285° |
| 2026-04-26 03:22 | 33.55033 | -113.07892 | 25574 ft | 380 kts | 285° |
| 2026-04-26 03:22 | 33.56051 | -113.10821 | 25970 ft | 382 kts | 284° |
| 2026-04-26 03:22 | 33.57077 | -113.13761 | 26373 ft | 383 kts | 284° |
| 2026-04-26 03:23 | 33.58106 | -113.16711 | 26769 ft | 384 kts | 284° |
| 2026-04-26 03:23 | 33.59137 | -113.19673 | 27148 ft | 386 kts | 284° |
| 2026-04-26 03:23 | 33.60169 | -113.22648 | 27521 ft | 387 kts | 284° |
| 2026-04-26 03:23 | 33.61206 | -113.25638 | 27894 ft | 389 kts | 284° |
| 2026-04-26 03:24 | 33.62243 | -113.28639 | 28265 ft | 390 kts | 284° |
| 2026-04-26 03:24 | 33.63285 | -113.31651 | 28622 ft | 392 kts | 284° |
| 2026-04-26 03:24 | 33.64331 | -113.34674 | 28965 ft | 393 kts | 284° |
| 2026-04-26 03:24 | 33.65379 | -113.37709 | 29299 ft | 395 kts | 284° |
| 2026-04-26 03:25 | 33.66430 | -113.40756 | 29614 ft | 396 kts | 283° |
| 2026-04-26 03:25 | 33.67482 | -113.43819 | 30062 ft | 397 kts | 283° |
| 2026-04-26 03:25 | 33.68536 | -113.46887 | 30343 ft | 399 kts | 283° |
| 2026-04-26 03:25 | 33.69594 | -113.49968 | 30631 ft | 400 kts | 283° |
| 2026-04-26 03:26 | 33.70659 | -113.53059 | 30915 ft | 401 kts | 283° |
| 2026-04-26 03:26 | 33.71726 | -113.56152 | 31278 ft | 400 kts | 283° |
| 2026-04-26 03:26 | 33.72770 | -113.59180 | 31688 ft | 397 kts | 283° |
| 2026-04-26 03:26 | 33.73825 | -113.62242 | 32086 ft | 395 kts | 283° |
| 2026-04-26 03:27 | 33.74870 | -113.65293 | 32491 ft | 393 kts | 282° |
| 2026-04-26 03:27 | 33.75904 | -113.68325 | 32791 ft | 391 kts | 282° |
| 2026-04-26 03:27 | 33.76933 | -113.71344 | 33202 ft | 390 kts | 282° |
| 2026-04-26 03:27 | 33.77960 | -113.74347 | 33629 ft | 388 kts | 282° |
| 2026-04-26 03:28 | 33.78981 | -113.77337 | 33998 ft | 386 kts | 282° |
| 2026-04-26 03:28 | 33.79995 | -113.80321 | 34317 ft | 385 kts | 282° |
| 2026-04-26 03:28 | 33.81004 | -113.83296 | 34625 ft | 384 kts | 282° |
| 2026-04-26 03:28 | 33.82013 | -113.86264 | 34938 ft | 383 kts | 282° |
| 2026-04-26 03:29 | 33.83020 | -113.89226 | 35244 ft | 382 kts | 282° |
| 2026-04-26 03:29 | 33.84027 | -113.92182 | 35560 ft | 382 kts | 282° |
| 2026-04-26 03:29 | 33.85035 | -113.95146 | 35725 ft | 383 kts | 282° |
| 2026-04-26 03:29 | 33.86037 | -113.98094 | 35765 ft | 380 kts | 282° |
| 2026-04-26 03:30 | 33.88023 | -114.03948 | 35769 ft | 377 kts | 282° |
| 2026-04-26 03:30 | 33.89991 | -114.09786 | 35768 ft | 376 kts | 281° |
| 2026-04-26 03:31 | 33.91268 | -114.15742 | 35766 ft | 365 kts | 272° |
| 2026-04-26 03:31 | 33.92282 | -114.21734 | 35762 ft | 365 kts | 272° |
| 2026-04-26 03:32 | 33.93299 | -114.27721 | 35761 ft | 365 kts | 272° |
| 2026-04-26 03:32 | 33.94315 | -114.33718 | 35756 ft | 365 kts | 272° |
| 2026-04-26 03:33 | 33.95325 | -114.39712 | 35758 ft | 365 kts | 272° |
| 2026-04-26 03:33 | 33.96334 | -114.45716 | 35748 ft | 366 kts | 272° |
| 2026-04-26 03:34 | 33.97344 | -114.51733 | 35771 ft | 367 kts | 272° |
| 2026-04-26 03:34 | 33.98351 | -114.57769 | 35759 ft | 368 kts | 272° |
| 2026-04-26 03:35 | 33.99357 | -114.63816 | 35747 ft | 368 kts | 272° |
| 2026-04-26 03:35 | 34.00362 | -114.69876 | 35751 ft | 369 kts | 272° |
| 2026-04-26 03:36 | 34.01363 | -114.75939 | 35754 ft | 369 kts | 272° |
| 2026-04-26 03:36 | 34.02362 | -114.82008 | 35761 ft | 369 kts | 272° |
| 2026-04-26 03:37 | 34.03364 | -114.88073 | 35753 ft | 369 kts | 272° |
| 2026-04-26 03:37 | 34.04361 | -114.94140 | 35752 ft | 369 kts | 272° |
| 2026-04-26 03:38 | 34.05345 | -115.00208 | 35749 ft | 369 kts | 272° |
| 2026-04-26 03:38 | 34.06331 | -115.06239 | 35761 ft | 369 kts | 272° |
| 2026-04-26 03:39 | 34.07321 | -115.12323 | 35762 ft | 370 kts | 272° |
| 2026-04-26 03:39 | 34.08316 | -115.18427 | 35750 ft | 371 kts | 272° |
| 2026-04-26 03:40 | 34.09309 | -115.24539 | 35747 ft | 372 kts | 272° |
| 2026-04-26 03:40 | 34.10294 | -115.30664 | 35750 ft | 372 kts | 272° |
| 2026-04-26 03:41 | 34.11277 | -115.36793 | 35750 ft | 372 kts | 272° |
| 2026-04-26 03:41 | 34.12257 | -115.42920 | 35754 ft | 372 kts | 272° |
| 2026-04-26 03:42 | 34.13240 | -115.49054 | 35756 ft | 372 kts | 272° |
| 2026-04-26 03:42 | 34.14218 | -115.55199 | 35267 ft | 378 kts | 272° |
| 2026-04-26 03:43 | 34.14709 | -115.58342 | 34484 ft | 382 kts | 271° |
| 2026-04-26 03:43 | 34.15205 | -115.61491 | 33916 ft | 382 kts | 271° |
| 2026-04-26 03:43 | 34.15704 | -115.64626 | 33412 ft | 379 kts | 272° |
| 2026-04-26 03:43 | 34.16102 | -115.67739 | 32846 ft | 370 kts | 266° |
| 2026-04-26 03:44 | 34.16163 | -115.70800 | 32294 ft | 360 kts | 260° |
| 2026-04-26 03:44 | 34.15925 | -115.73776 | 31846 ft | 353 kts | 257° |
| 2026-04-26 03:44 | 34.15633 | -115.76724 | 31739 ft | 355 kts | 257° |
| 2026-04-26 03:44 | 34.15342 | -115.79695 | 31758 ft | 358 kts | 257° |
| 2026-04-26 03:45 | 34.14762 | -115.85680 | 31761 ft | 359 kts | 257° |
| 2026-04-26 03:45 | 34.14189 | -115.91674 | 31775 ft | 360 kts | 257° |
| 2026-04-26 03:46 | 34.13607 | -115.97675 | 31775 ft | 362 kts | 257° |
| 2026-04-26 03:47 | 34.12720 | -116.06713 | 31787 ft | 364 kts | 257° |
| 2026-04-26 03:47 | 34.12120 | -116.12814 | 31774 ft | 364 kts | 257° |
| 2026-04-26 03:48 | 34.11523 | -116.18839 | 31786 ft | 364 kts | 258° |
| 2026-04-26 03:48 | 34.10920 | -116.24901 | 31788 ft | 364 kts | 257° |
| 2026-04-26 03:49 | 34.10307 | -116.30991 | 31806 ft | 368 kts | 258° |
| 2026-04-26 03:49 | 34.09655 | -116.37168 | 31669 ft | 376 kts | 257° |
| 2026-04-26 03:49 | 34.09317 | -116.40289 | 31036 ft | 375 kts | 257° |
| 2026-04-26 03:50 | 34.08980 | -116.43404 | 30438 ft | 373 kts | 258° |
| 2026-04-26 03:50 | 34.08647 | -116.46497 | 29869 ft | 371 kts | 258° |
| 2026-04-26 03:50 | 34.08316 | -116.49580 | 29247 ft | 369 kts | 258° |
| 2026-04-26 03:50 | 34.07988 | -116.52639 | 28671 ft | 366 kts | 258° |
| 2026-04-26 03:51 | 34.07661 | -116.55664 | 28080 ft | 363 kts | 258° |
| 2026-04-26 03:51 | 34.07335 | -116.58667 | 27545 ft | 359 kts | 258° |
| 2026-04-26 03:51 | 34.07028 | -116.61637 | 27046 ft | 355 kts | 259° |
| 2026-04-26 03:51 | 34.06750 | -116.64584 | 26548 ft | 352 kts | 259° |
| 2026-04-26 03:52 | 34.06487 | -116.67511 | 26022 ft | 350 kts | 259° |
| 2026-04-26 03:52 | 34.06227 | -116.70417 | 25506 ft | 347 kts | 259° |
| 2026-04-26 03:52 | 34.05967 | -116.73300 | 25007 ft | 344 kts | 259° |
| 2026-04-26 03:52 | 34.05708 | -116.76151 | 24482 ft | 341 kts | 259° |
| 2026-04-26 03:53 | 34.05445 | -116.78988 | 23997 ft | 339 kts | 258° |
| 2026-04-26 03:53 | 34.05182 | -116.81797 | 23519 ft | 336 kts | 258° |
| 2026-04-26 03:53 | 34.04918 | -116.84588 | 22958 ft | 334 kts | 258° |
| 2026-04-26 03:53 | 34.04653 | -116.87374 | 22433 ft | 333 kts | 258° |
| 2026-04-26 03:54 | 34.04381 | -116.90132 | 21899 ft | 330 kts | 257° |
| 2026-04-26 03:54 | 34.04055 | -116.92866 | 21362 ft | 329 kts | 256° |
| 2026-04-26 03:54 | 34.03694 | -116.95583 | 20800 ft | 327 kts | 256° |
| 2026-04-26 03:54 | 34.03324 | -116.98289 | 20259 ft | 327 kts | 256° |
| 2026-04-26 03:55 | 34.02957 | -117.00996 | 19737 ft | 327 kts | 256° |
| 2026-04-26 03:55 | 34.02595 | -117.03700 | 19214 ft | 327 kts | 256° |
| 2026-04-26 03:55 | 34.02253 | -117.06413 | 18694 ft | 327 kts | 257° |
| 2026-04-26 03:55 | 34.01929 | -117.09131 | 18173 ft | 328 kts | 257° |
| 2026-04-26 03:56 | 34.01612 | -117.11848 | 17631 ft | 327 kts | 257° |
| 2026-04-26 03:56 | 34.01299 | -117.14555 | 17180 ft | 324 kts | 258° |
| 2026-04-26 03:56 | 34.00992 | -117.17195 | 16957 ft | 314 kts | 258° |
| 2026-04-26 03:56 | 34.00689 | -117.19781 | 16617 ft | 309 kts | 259° |
| 2026-04-26 03:57 | 34.00386 | -117.22330 | 16181 ft | 306 kts | 259° |
| 2026-04-26 03:57 | 34.00086 | -117.24854 | 15767 ft | 303 kts | 259° |
| 2026-04-26 03:57 | 33.99887 | -117.26515 | 15470 ft | 302 kts | 259° |
| 2026-04-26 03:57 | 33.99586 | -117.29012 | 15063 ft | 300 kts | 259° |
| 2026-04-26 03:58 | 33.99190 | -117.32296 | 14502 ft | 298 kts | 259° |
| 2026-04-26 03:58 | 33.98992 | -117.33960 | 14244 ft | 296 kts | 259° |
| 2026-04-26 03:58 | 33.98702 | -117.36411 | 13856 ft | 295 kts | 260° |
| 2026-04-26 03:58 | 33.98417 | -117.38845 | 13434 ft | 293 kts | 260° |
| 2026-04-26 03:59 | 33.98044 | -117.42051 | 12821 ft | 291 kts | 260° |
| 2026-04-26 03:59 | 33.97854 | -117.43679 | 12504 ft | 291 kts | 260° |
| 2026-04-26 03:59 | 33.97569 | -117.46090 | 12039 ft | 290 kts | 260° |
| 2026-04-26 03:59 | 33.97419 | -117.48508 | 11605 ft | 290 kts | 270° |
| 2026-04-26 04:00 | 33.97719 | -117.50916 | 11160 ft | 292 kts | 282° |
| 2026-04-26 04:00 | 33.98287 | -117.53266 | 10724 ft | 292 kts | 283° |
| 2026-04-26 04:00 | 33.98849 | -117.55610 | 10302 ft | 291 kts | 283° |
| 2026-04-26 04:00 | 33.99402 | -117.57944 | 10038 ft | 289 kts | 283° |
| 2026-04-26 04:01 | 33.99953 | -117.60278 | 10019 ft | 291 kts | 282° |
| 2026-04-26 04:01 | 34.00504 | -117.62624 | 10015 ft | 291 kts | 283° |
| 2026-04-26 04:01 | 34.01053 | -117.64968 | 10020 ft | 291 kts | 283° |
| 2026-04-26 04:01 | 34.01595 | -117.67281 | 10026 ft | 291 kts | 283° |
| 2026-04-26 04:02 | 34.02030 | -117.69651 | 10029 ft | 288 kts | 273° |
| 2026-04-26 04:02 | 34.02004 | -117.72045 | 10032 ft | 286 kts | 261° |
| 2026-04-26 04:02 | 34.01762 | -117.74425 | 10013 ft | 286 kts | 262° |
| 2026-04-26 04:02 | 34.01528 | -117.76799 | 10019 ft | 285 kts | 262° |
| 2026-04-26 04:03 | 34.01296 | -117.79175 | 10019 ft | 285 kts | 262° |
| 2026-04-26 04:03 | 34.01063 | -117.81551 | 10021 ft | 286 kts | 262° |
| 2026-04-26 04:03 | 34.00831 | -117.83927 | 10013 ft | 286 kts | 262° |
| 2026-04-26 04:03 | 34.00599 | -117.86302 | 10013 ft | 285 kts | 262° |
| 2026-04-26 04:04 | 34.00368 | -117.88677 | 10010 ft | 286 kts | 262° |
| 2026-04-26 04:04 | 34.00135 | -117.91054 | 9558 ft | 288 kts | 262° |
| 2026-04-26 04:04 | 33.99869 | -117.93680 | 7204 ft | 343 kts | 262° |
| 2026-04-26 04:04 | 33.99560 | -117.96672 | 5698 ft | 370 kts | 262° |
| 2026-04-26 04:05 | 33.99273 | -117.99649 | 5586 ft | 338 kts | 263° |
| 2026-04-26 04:05 | 33.99020 | -118.02297 | 5489 ft | 301 kts | 262° |
| 2026-04-26 04:05 | 33.98786 | -118.04659 | 5243 ft | 268 kts | 262° |
| 2026-04-26 04:05 | 33.98575 | -118.06777 | 5056 ft | 248 kts | 263° |
| 2026-04-26 04:06 | 33.98367 | -118.08856 | 5005 ft | 251 kts | 263° |
| 2026-04-26 04:06 | 33.98158 | -118.10952 | 4898 ft | 252 kts | 263° |
| 2026-04-26 04:06 | 33.97952 | -118.13018 | 4604 ft | 239 kts | 263° |
| 2026-04-26 04:06 | 33.97764 | -118.14898 | 4308 ft | 217 kts | 263° |
| 2026-04-26 04:07 | 33.97588 | -118.16658 | 4029 ft | 209 kts | 263° |
| 2026-04-26 04:07 | 33.97415 | -118.18392 | 3751 ft | 208 kts | 263° |
| 2026-04-26 04:07 | 33.97241 | -118.20123 | 3476 ft | 208 kts | 263° |
| 2026-04-26 04:07 | 33.97069 | -118.21842 | 3201 ft | 207 kts | 263° |
| 2026-04-26 04:08 | 33.96895 | -118.23568 | 2921 ft | 208 kts | 263° |
| 2026-04-26 04:08 | 33.96722 | -118.25286 | 2637 ft | 203 kts | 263° |
| 2026-04-26 04:08 | 33.96555 | -118.26935 | 2371 ft | 194 kts | 263° |
| 2026-04-26 04:08 | 33.96396 | -118.28508 | 2115 ft | 185 kts | 263° |
| 2026-04-26 04:09 | 33.96243 | -118.30030 | 1844 ft | 182 kts | 263° |
| 2026-04-26 04:09 | 33.96094 | -118.31517 | 1640 ft | 178 kts | 262° |
| 2026-04-26 04:09 | 33.95948 | -118.32947 | 1424 ft | 162 kts | 263° |
| 2026-04-26 04:09 | 33.95818 | -118.34225 | 1181 ft | 150 kts | 263° |
| 2026-04-26 04:10 | 33.95693 | -118.35452 | 966 ft | 146 kts | 263° |
| 2026-04-26 04:10 | 33.95569 | -118.36669 | 766 ft | 145 kts | 263° |
| 2026-04-26 04:10 | 33.95447 | -118.37862 | 556 ft | 143 kts | 264° |
| 2026-04-26 04:10 | 33.95327 | -118.39039 | 365 ft | 140 kts | 263° |
| 2026-04-26 04:11 | 33.95212 | -118.40197 | 186 ft | 138 kts | 264° |
| 2026-04-26 04:11 | 33.95111 | -118.41216 | 125 ft | 81 kts | 263° |
| 2026-04-26 04:11 | 33.95041 | -118.41812 | 126 ft | 64 kts | 262° |
| 2026-04-26 04:11 | 33.94989 | -118.42298 | 122 ft | 54 kts | 261° |
| 2026-04-26 04:12 | 33.94893 | -118.42624 | 124 ft | 31 kts | 230° |
| 2026-04-26 04:12 | 33.94734 | -118.42772 | 124 ft | 27 kts | 201° |
| 2026-04-26 04:12 | 33.94638 | -118.42740 | 123 ft | 4 kts | 96° |
| 2026-04-26 04:12 | 33.94637 | -118.42716 | 123 ft | 2 kts | 89° |
| 2026-04-26 04:13 | 33.94639 | -118.42677 | 126 ft | 7 kts | 85° |
| 2026-04-26 04:13 | 33.94640 | -118.42666 | 126 ft | 2 kts | 83° |
| 2026-04-26 04:13 | 33.94641 | -118.42656 | 126 ft | 4 kts | 83° |
| 2026-04-26 04:13 | 33.94649 | -118.42579 | 126 ft | 17 kts | 83° |
| 2026-04-26 04:14 | 33.94657 | -118.42495 | 126 ft | 6 kts | 83° |
| 2026-04-26 04:14 | 33.94661 | -118.42449 | 123 ft | 5 kts | 83° |
| 2026-04-26 04:14 | 33.94672 | -118.42336 | 126 ft | 29 kts | 83° |
| 2026-04-26 04:14 | 33.94697 | -118.42087 | 126 ft | 25 kts | 82° |
| 2026-04-26 04:15 | 33.94720 | -118.41890 | 126 ft | 23 kts | 83° |
| 2026-04-26 04:15 | 33.94739 | -118.41709 | 126 ft | 20 kts | 83° |
| 2026-04-26 04:15 | 33.94758 | -118.41513 | 126 ft | 30 kts | 84° |
| 2026-04-26 04:15 | 33.94795 | -118.41273 | 126 ft | 31 kts | 75° |
| 2026-04-26 04:16 | 33.94826 | -118.40997 | 125 ft | 41 kts | 82° |
| 2026-04-26 04:16 | 33.94861 | -118.40662 | 126 ft | 22 kts | 89° |
| 2026-04-26 04:16 | 33.94766 | -118.40551 | 122 ft | 19 kts | 141° |
| 2026-04-26 04:16 | 33.94721 | -118.40489 | 125 ft | 4 kts | 130° |
| 2026-04-26 04:17 | 33.94720 | -118.40487 | 125 ft | 0 kts | 130° |
| 2026-04-26 04:17 | 33.94719 | -118.40486 | 125 ft | 0 kts | 130° |